sensor_id;sensor_type;location;lat;lon;timestamp;pressure;altitude;pressure_sealevel;temperature;humidity
61742;BME280;47650;49.848;9.620;2022-11-15T00:04:21;99414.38;;;8.90;70.76
61742;BME280;47650;49.848;9.620;2022-11-15T00:06:47;99412.16;;;8.95;70.33
61742;BME280;47650;49.848;9.620;2022-11-15T00:09:17;99409.38;;;8.96;70.47
61742;BME280;47650;49.848;9.620;2022-11-15T00:11:42;99415.22;;;9.00;70.67
61742;BME280;47650;49.848;9.620;2022-11-15T00:14:08;99407.16;;;9.01;70.38
61742;BME280;47650;49.848;9.620;2022-11-15T00:16:33;99408.94;;;9.01;69.95
61742;BME280;47650;49.848;9.620;2022-11-15T00:18:58;99408.53;;;8.96;70.01
61742;BME280;47650;49.848;9.620;2022-11-15T00:21:24;99412.28;;;8.93;70.01
61742;BME280;47650;49.848;9.620;2022-11-15T00:23:49;99408.13;;;8.81;70.32
61742;BME280;47650;49.848;9.620;2022-11-15T00:26:15;99406.84;;;8.75;70.11
61742;BME280;47650;49.848;9.620;2022-11-15T00:28:41;99413.81;;;8.76;70.43
61742;BME280;47650;49.848;9.620;2022-11-15T00:31:09;99413.53;;;8.79;70.58
61742;BME280;47650;49.848;9.620;2022-11-15T00:33:35;99387.66;;;8.73;71.01
61742;BME280;47650;49.848;9.620;2022-11-15T00:36:09;99417.31;;;8.87;70.22
61742;BME280;47650;49.848;9.620;2022-11-15T00:38:38;99408.25;;;8.89;70.46
61742;BME280;47650;49.848;9.620;2022-11-15T00:41:05;99402.13;;;8.89;70.38
61742;BME280;47650;49.848;9.620;2022-11-15T00:43:33;99404.09;;;8.87;70.67
61742;BME280;47650;49.848;9.620;2022-11-15T00:45:59;99408.38;;;8.97;70.52
61742;BME280;47650;49.848;9.620;2022-11-15T00:48:25;99417.44;;;8.95;70.28
61742;BME280;47650;49.848;9.620;2022-11-15T00:50:50;99405.47;;;8.91;70.32
61742;BME280;47650;49.848;9.620;2022-11-15T00:53:21;99410.47;;;8.84;70.09
61742;BME280;47650;49.848;9.620;2022-11-15T00:55:47;99274.94;;;7.94;70.02
61742;BME280;47650;49.848;9.620;2022-11-15T00:58:19;99406.31;;;8.62;70.46
61742;BME280;47650;49.848;9.620;2022-11-15T01:00:44;99397.09;;;8.46;70.43
61742;BME280;47650;49.848;9.620;2022-11-15T01:03:10;99394.00;;;8.41;70.88
61742;BME280;47650;49.848;9.620;2022-11-15T01:05:38;99403.56;;;8.23;70.08
61742;BME280;47650;49.848;9.620;2022-11-15T01:08:05;99398.31;;;8.33;71.16
61742;BME280;47650;49.848;9.620;2022-11-15T01:10:30;99394.38;;;8.27;70.87
61742;BME280;47650;49.848;9.620;2022-11-15T01:12:56;99403.56;;;8.23;71.35
61742;BME280;47650;49.848;9.620;2022-11-15T01:15:23;99402.28;;;8.17;71.20
61742;BME280;47650;49.848;9.620;2022-11-15T01:17:48;99391.69;;;8.07;71.23
61742;BME280;47650;49.848;9.620;2022-11-15T01:20:14;99395.59;;;8.03;71.60
61742;BME280;47650;49.848;9.620;2022-11-15T01:22:47;99384.72;;;7.97;71.67
61742;BME280;47650;49.848;9.620;2022-11-15T01:25:12;99383.34;;;7.93;71.60
61742;BME280;47650;49.848;9.620;2022-11-15T01:27:38;99377.50;;;7.89;71.74
61742;BME280;47650;49.848;9.620;2022-11-15T01:30:03;99367.44;;;7.83;72.09
61742;BME280;47650;49.848;9.620;2022-11-15T01:32:29;99380.00;;;8.00;72.10
61742;BME280;47650;49.848;9.620;2022-11-15T01:35:03;99372.25;;;8.08;72.01
61742;BME280;47650;49.848;9.620;2022-11-15T01:37:29;99367.41;;;8.14;71.19
61742;BME280;47650;49.848;9.620;2022-11-15T01:39:56;99368.81;;;8.27;71.71
61742;BME280;47650;49.848;9.620;2022-11-15T01:42:23;99358.78;;;8.21;71.55
61742;BME280;47650;49.848;9.620;2022-11-15T01:44:52;99357.81;;;8.32;71.33
61742;BME280;47650;49.848;9.620;2022-11-15T01:50:00;99364.00;;;7.61;72.71
61742;BME280;47650;49.848;9.620;2022-11-15T01:52:28;99363.56;;;7.87;73.51
61742;BME280;47650;49.848;9.620;2022-11-15T01:55:16;99362.34;;;7.91;73.65
61742;BME280;47650;49.848;9.620;2022-11-15T01:57:45;99343.31;;;7.87;73.82
61742;BME280;47650;49.848;9.620;2022-11-15T02:00:13;99362.22;;;8.02;73.92
61742;BME280;47650;49.848;9.620;2022-11-15T02:02:39;99356.69;;;8.05;73.42
61742;BME280;47650;49.848;9.620;2022-11-15T02:05:06;99352.59;;;7.91;73.45
61742;BME280;47650;49.848;9.620;2022-11-15T02:07:34;99352.47;;;7.93;73.53
61742;BME280;47650;49.848;9.620;2022-11-15T02:10:06;99345.69;;;8.00;73.50
61742;BME280;47650;49.848;9.620;2022-11-15T02:12:33;99336.69;;;8.03;73.76
61742;BME280;47650;49.848;9.620;2022-11-15T02:14:59;99330.13;;;8.07;73.23
61742;BME280;47650;49.848;9.620;2022-11-15T02:20:35;99324.81;;;7.47;73.85
61742;BME280;47650;49.848;9.620;2022-11-15T02:32:14;99324.34;;;7.72;73.99
61742;BME280;47650;49.848;9.620;2022-11-15T02:37:39;99324.81;;;7.47;74.28
61742;BME280;47650;49.848;9.620;2022-11-15T02:40:38;99317.34;;;7.52;74.58
61742;BME280;47650;49.848;9.620;2022-11-15T02:43:20;99318.44;;;7.49;74.60
61742;BME280;47650;49.848;9.620;2022-11-15T02:46:14;99322.16;;;7.47;74.41
61742;BME280;47650;49.848;9.620;2022-11-15T02:48:42;99322.88;;;7.49;74.69
61742;BME280;47650;49.848;9.620;2022-11-15T02:51:09;99306.78;;;7.52;74.80
61742;BME280;47650;49.848;9.620;2022-11-15T02:53:39;99325.59;;;7.68;74.56
61742;BME280;47650;49.848;9.620;2022-11-15T02:56:07;99321.72;;;7.72;74.33
61742;BME280;47650;49.848;9.620;2022-11-15T02:58:41;99326.72;;;7.76;74.04
61742;BME280;47650;49.848;9.620;2022-11-15T03:03:59;99320.75;;;7.74;73.57
61742;BME280;47650;49.848;9.620;2022-11-15T03:06:38;99322.25;;;7.66;73.26
61742;BME280;47650;49.848;9.620;2022-11-15T03:09:27;99316.53;;;7.61;72.91
61742;BME280;47650;49.848;9.620;2022-11-15T03:12:02;99311.75;;;7.45;72.74
61742;BME280;47650;49.848;9.620;2022-11-15T03:14:45;99281.66;;;7.17;72.86
61742;BME280;47650;49.848;9.620;2022-11-15T03:17:29;99320.97;;;7.30;73.06
61742;BME280;47650;49.848;9.620;2022-11-15T03:20:09;99314.38;;;7.14;72.98
61742;BME280;47650;49.848;9.620;2022-11-15T03:22:42;99309.97;;;7.15;72.80
61742;BME280;47650;49.848;9.620;2022-11-15T03:25:10;99301.47;;;7.11;72.87
61742;BME280;47650;49.848;9.620;2022-11-15T03:27:42;99299.66;;;7.12;72.73
61742;BME280;47650;49.848;9.620;2022-11-15T03:30:11;99256.69;;;6.90;72.56
61742;BME280;47650;49.848;9.620;2022-11-15T03:32:49;99264.63;;;7.00;72.65
61742;BME280;47650;49.848;9.620;2022-11-15T03:35:23;99281.66;;;7.17;72.54
61742;BME280;47650;49.848;9.620;2022-11-15T03:40:17;99226.28;;;6.86;72.23
61742;BME280;47650;49.848;9.620;2022-11-15T03:42:56;99271.78;;;6.88;71.79
61742;BME280;47650;49.848;9.620;2022-11-15T03:45:41;99271.47;;;7.03;72.35
61742;BME280;47650;49.848;9.620;2022-11-15T03:48:12;99269.00;;;7.11;72.88
61742;BME280;47650;49.848;9.620;2022-11-15T03:50:38;99270.94;;;7.09;73.31
61742;BME280;47650;49.848;9.620;2022-11-15T03:53:05;99276.88;;;7.01;73.17
61742;BME280;47650;49.848;9.620;2022-11-15T03:55:31;99267.97;;;7.02;73.00
61742;BME280;47650;49.848;9.620;2022-11-15T03:57:58;99241.00;;;6.89;73.38
61742;BME280;47650;49.848;9.620;2022-11-15T04:00:25;99259.75;;;6.95;73.57
61742;BME280;47650;49.848;9.620;2022-11-15T04:02:50;99269.91;;;7.00;73.22
61742;BME280;47650;49.848;9.620;2022-11-15T04:05:16;99270.91;;;6.99;72.65
61742;BME280;47650;49.848;9.620;2022-11-15T04:07:44;99273.09;;;6.94;73.02
61742;BME280;47650;49.848;9.620;2022-11-15T04:10:12;99279.00;;;6.86;72.86
61742;BME280;47650;49.848;9.620;2022-11-15T04:12:40;99277.72;;;6.81;73.05
61742;BME280;47650;49.848;9.620;2022-11-15T04:15:10;99276.28;;;6.76;72.96
61742;BME280;47650;49.848;9.620;2022-11-15T04:17:50;99266.41;;;6.69;72.61
61742;BME280;47650;49.848;9.620;2022-11-15T04:20:23;99286.66;;;6.68;72.46
61742;BME280;47650;49.848;9.620;2022-11-15T04:23:16;99283.00;;;6.59;72.58
61742;BME280;47650;49.848;9.620;2022-11-15T04:26:03;99289.75;;;6.52;73.05
61742;BME280;47650;49.848;9.620;2022-11-15T04:28:29;99274.69;;;6.43;72.73
61742;BME280;47650;49.848;9.620;2022-11-15T04:30:56;99266.91;;;6.42;72.83
61742;BME280;47650;49.848;9.620;2022-11-15T04:33:22;99225.78;;;6.08;72.58
61742;BME280;47650;49.848;9.620;2022-11-15T04:35:47;99269.72;;;6.29;72.77
61742;BME280;47650;49.848;9.620;2022-11-15T04:38:33;99275.75;;;6.19;72.83
61742;BME280;47650;49.848;9.620;2022-11-15T04:41:00;99255.69;;;6.07;72.92
61742;BME280;47650;49.848;9.620;2022-11-15T04:43:25;99276.00;;;6.16;73.07
61742;BME280;47650;49.848;9.620;2022-11-15T04:45:50;99268.22;;;6.15;73.44
61742;BME280;47650;49.848;9.620;2022-11-15T04:48:16;99231.44;;;5.81;73.52
61742;BME280;47650;49.848;9.620;2022-11-15T04:50:50;99288.72;;;6.00;72.78
61742;BME280;47650;49.848;9.620;2022-11-15T04:53:15;99249.63;;;5.84;73.44
61742;BME280;47650;49.848;9.620;2022-11-15T04:55:45;99273.63;;;6.02;73.22
61742;BME280;47650;49.848;9.620;2022-11-15T04:58:10;99273.63;;;6.02;73.52
61742;BME280;47650;49.848;9.620;2022-11-15T05:00:35;99256.06;;;5.91;73.39
61742;BME280;47650;49.848;9.620;2022-11-15T05:03:01;99273.16;;;5.97;73.24
61742;BME280;47650;49.848;9.620;2022-11-15T05:05:46;99259.41;;;5.93;72.87
61742;BME280;47650;49.848;9.620;2022-11-15T05:08:11;99243.31;;;5.87;73.17
61742;BME280;47650;49.848;9.620;2022-11-15T05:10:37;99250.94;;;6.01;73.82
61742;BME280;47650;49.848;9.620;2022-11-15T05:13:02;99247.09;;;5.94;73.51
61742;BME280;47650;49.848;9.620;2022-11-15T05:15:30;99247.31;;;6.02;73.33
61742;BME280;47650;49.848;9.620;2022-11-15T05:17:59;99266.72;;;6.01;73.08
61742;BME280;47650;49.848;9.620;2022-11-15T05:20:25;99229.06;;;5.78;74.36
61742;BME280;47650;49.848;9.620;2022-11-15T05:22:51;99251.84;;;6.11;74.84
61742;BME280;47650;49.848;9.620;2022-11-15T05:25:17;99257.59;;;6.05;74.73
61742;BME280;47650;49.848;9.620;2022-11-15T05:27:43;99270.75;;;6.16;74.00
61742;BME280;47650;49.848;9.620;2022-11-15T05:30:08;99237.97;;;6.09;74.19
61742;BME280;47650;49.848;9.620;2022-11-15T05:32:34;99227.47;;;6.09;74.02
61742;BME280;47650;49.848;9.620;2022-11-15T05:34:59;99241.72;;;6.28;74.23
61742;BME280;47650;49.848;9.620;2022-11-15T05:37:24;99226.44;;;6.21;73.49
61742;BME280;47650;49.848;9.620;2022-11-15T05:39:50;99245.31;;;6.27;73.53
61742;BME280;47650;49.848;9.620;2022-11-15T05:42:16;99245.19;;;5.84;73.46
61742;BME280;47650;49.848;9.620;2022-11-15T05:44:47;99246.59;;;6.11;74.14
61742;BME280;47650;49.848;9.620;2022-11-15T05:47:20;99231.03;;;6.08;74.10
61742;BME280;47650;49.848;9.620;2022-11-15T05:49:47;99254.53;;;5.77;73.67
61742;BME280;47650;49.848;9.620;2022-11-15T05:52:17;99249.94;;;6.02;74.58
61742;BME280;47650;49.848;9.620;2022-11-15T05:54:45;99253.31;;;6.04;74.31
61742;BME280;47650;49.848;9.620;2022-11-15T05:57:10;99257.03;;;6.01;74.41
61742;BME280;47650;49.848;9.620;2022-11-15T05:59:36;99246.84;;;6.08;74.32
61742;BME280;47650;49.848;9.620;2022-11-15T06:02:02;99244.06;;;6.10;74.41
61742;BME280;47650;49.848;9.620;2022-11-15T06:04:28;99213.75;;;5.83;73.89
61742;BME280;47650;49.848;9.620;2022-11-15T06:06:53;99204.06;;;5.83;74.15
61742;BME280;47650;49.848;9.620;2022-11-15T06:09:18;99245.41;;;6.04;73.84
61742;BME280;47650;49.848;9.620;2022-11-15T06:11:44;99222.94;;;6.00;74.06
61742;BME280;47650;49.848;9.620;2022-11-15T06:14:09;99246.06;;;6.17;74.12
61742;BME280;47650;49.848;9.620;2022-11-15T06:16:35;99250.25;;;6.20;74.12
61742;BME280;47650;49.848;9.620;2022-11-15T06:19:09;99243.66;;;6.26;73.80
61742;BME280;47650;49.848;9.620;2022-11-15T06:21:35;99234.28;;;6.33;73.95
61742;BME280;47650;49.848;9.620;2022-11-15T06:24:06;99232.09;;;6.38;74.26
61742;BME280;47650;49.848;9.620;2022-11-15T06:26:33;99223.38;;;6.37;74.02
61742;BME280;47650;49.848;9.620;2022-11-15T06:28:59;99232.41;;;6.24;73.41
61742;BME280;47650;49.848;9.620;2022-11-15T06:31:24;99229.63;;;6.04;73.76
61742;BME280;47650;49.848;9.620;2022-11-15T06:33:49;99228.94;;;6.23;73.86
61742;BME280;47650;49.848;9.620;2022-11-15T06:36:15;99239.47;;;6.23;73.47
61742;BME280;47650;49.848;9.620;2022-11-15T06:38:45;99235.25;;;6.32;73.69
61742;BME280;47650;49.848;9.620;2022-11-15T06:41:12;99236.59;;;6.47;74.21
61742;BME280;47650;49.848;9.620;2022-11-15T06:43:39;99223.59;;;6.55;73.58
61742;BME280;47650;49.848;9.620;2022-11-15T06:46:05;99238.00;;;6.72;73.13
61742;BME280;47650;49.848;9.620;2022-11-15T06:48:31;99248.59;;;6.82;72.30
61742;BME280;47650;49.848;9.620;2022-11-15T06:51:04;99247.38;;;6.86;71.55
61742;BME280;47650;49.848;9.620;2022-11-15T06:53:32;99250.81;;;7.08;72.35
61742;BME280;47650;49.848;9.620;2022-11-15T06:56:01;99247.56;;;7.25;72.83
61742;BME280;47650;49.848;9.620;2022-11-15T06:58:27;99256.47;;;7.34;72.42
61742;BME280;47650;49.848;9.620;2022-11-15T07:00:53;99262.75;;;7.43;72.05
61742;BME280;47650;49.848;9.620;2022-11-15T07:03:19;99266.94;;;7.55;71.46
61742;BME280;47650;49.848;9.620;2022-11-15T07:05:52;99269.19;;;7.69;71.20
61742;BME280;47650;49.848;9.620;2022-11-15T07:08:18;99266.47;;;7.81;71.35
61742;BME280;47650;49.848;9.620;2022-11-15T07:10:44;99277.56;;;7.94;70.95
61742;BME280;47650;49.848;9.620;2022-11-15T07:13:09;99269.69;;;8.04;70.74
61742;BME280;47650;49.848;9.620;2022-11-15T07:15:34;99271.78;;;8.20;70.75
61742;BME280;47650;49.848;9.620;2022-11-15T07:18:01;99278.16;;;8.27;70.36
61742;BME280;47650;49.848;9.620;2022-11-15T07:20:26;99259.13;;;8.33;69.89
61742;BME280;47650;49.848;9.620;2022-11-15T07:22:59;99252.47;;;8.49;69.55
61742;BME280;47650;49.848;9.620;2022-11-15T07:25:24;99247.03;;;8.60;69.13
61742;BME280;47650;49.848;9.620;2022-11-15T07:27:57;99249.41;;;8.63;68.74
61742;BME280;47650;49.848;9.620;2022-11-15T07:30:24;99246.06;;;8.61;67.15
61742;BME280;47650;49.848;9.620;2022-11-15T07:35:20;99242.31;;;8.63;67.87
61742;BME280;47650;49.848;9.620;2022-11-15T07:37:54;99248.84;;;8.59;67.91
61742;BME280;47650;49.848;9.620;2022-11-15T07:40:22;99233.72;;;8.52;68.13
61742;BME280;47650;49.848;9.620;2022-11-15T07:42:48;99245.19;;;8.70;68.02
61742;BME280;47650;49.848;9.620;2022-11-15T07:45:22;99243.22;;;8.92;67.72
61742;BME280;47650;49.848;9.620;2022-11-15T07:47:49;99231.19;;;9.07;66.78
61742;BME280;47650;49.848;9.620;2022-11-15T07:50:23;99219.06;;;9.88;65.29
61742;BME280;47650;49.848;9.620;2022-11-15T07:52:54;99243.53;;;11.48;62.43
61742;BME280;47650;49.848;9.620;2022-11-15T07:55:21;99236.22;;;12.84;58.80
61742;BME280;47650;49.848;9.620;2022-11-15T07:57:46;99219.38;;;14.10;55.59
61742;BME280;47650;49.848;9.620;2022-11-15T08:00:13;99205.09;;;15.32;52.33
61742;BME280;47650;49.848;9.620;2022-11-15T08:02:48;99188.78;;;16.21;46.55
61742;BME280;47650;49.848;9.620;2022-11-15T08:05:14;99218.84;;;15.50;44.15
61742;BME280;47650;49.848;9.620;2022-11-15T08:07:39;99203.91;;;16.29;45.35
61742;BME280;47650;49.848;9.620;2022-11-15T08:10:06;99199.38;;;17.14;44.30
61742;BME280;47650;49.848;9.620;2022-11-15T08:12:33;99194.38;;;18.14;43.32
61742;BME280;47650;49.848;9.620;2022-11-15T08:14:59;99202.19;;;16.99;41.12
61742;BME280;47650;49.848;9.620;2022-11-15T08:17:25;99217.13;;;16.15;44.08
61742;BME280;47650;49.848;9.620;2022-11-15T08:19:50;99200.16;;;17.50;43.17
61742;BME280;47650;49.848;9.620;2022-11-15T08:22:16;99194.78;;;18.18;42.39
61742;BME280;47650;49.848;9.620;2022-11-15T08:24:42;99161.91;;;19.03;40.53
61742;BME280;47650;49.848;9.620;2022-11-15T08:27:08;99164.03;;;19.84;38.28
61742;BME280;47650;49.848;9.620;2022-11-15T08:29:45;99160.78;;;20.58;37.08
61742;BME280;47650;49.848;9.620;2022-11-15T08:32:11;99156.19;;;21.02;35.74
61742;BME280;47650;49.848;9.620;2022-11-15T08:34:37;99146.56;;;21.43;34.73
61742;BME280;47650;49.848;9.620;2022-11-15T08:37:05;99159.31;;;21.85;34.61
61742;BME280;47650;49.848;9.620;2022-11-15T08:39:33;99146.28;;;19.77;36.54
61742;BME280;47650;49.848;9.620;2022-11-15T08:41:59;99177.34;;;17.80;41.41
61742;BME280;47650;49.848;9.620;2022-11-15T08:44:30;99183.59;;;17.33;44.34
61742;BME280;47650;49.848;9.620;2022-11-15T08:46:55;99185.69;;;15.59;48.05
61742;BME280;47650;49.848;9.620;2022-11-15T08:49:21;99172.81;;;17.19;45.55
61742;BME280;47650;49.848;9.620;2022-11-15T08:51:48;99181.06;;;17.18;43.21
61742;BME280;47650;49.848;9.620;2022-11-15T08:54:14;99181.00;;;16.48;47.15
61742;BME280;47650;49.848;9.620;2022-11-15T08:56:40;99172.81;;;15.48;48.22
61742;BME280;47650;49.848;9.620;2022-11-15T08:59:07;99161.03;;;16.44;47.46
61742;BME280;47650;49.848;9.620;2022-11-15T09:01:32;99149.38;;;18.43;45.44
61742;BME280;47650;49.848;9.620;2022-11-15T09:03:58;99145.13;;;19.59;40.25
61742;BME280;47650;49.848;9.620;2022-11-15T09:06:23;99138.06;;;20.72;37.36
61742;BME280;47650;49.848;9.620;2022-11-15T09:08:48;99133.44;;;20.98;37.24
61742;BME280;47650;49.848;9.620;2022-11-15T09:11:15;99116.09;;;21.73;34.70
61742;BME280;47650;49.848;9.620;2022-11-15T09:13:43;99120.75;;;22.08;33.79
61742;BME280;47650;49.848;9.620;2022-11-15T09:16:08;99136.53;;;22.82;33.24
61742;BME280;47650;49.848;9.620;2022-11-15T09:18:33;99132.53;;;22.96;32.96
61742;BME280;47650;49.848;9.620;2022-11-15T09:20:59;99127.63;;;22.34;33.12
61742;BME280;47650;49.848;9.620;2022-11-15T09:23:27;99127.00;;;23.43;32.37
61742;BME280;47650;49.848;9.620;2022-11-15T09:25:59;99125.22;;;25.02;30.44
61742;BME280;47650;49.848;9.620;2022-11-15T09:28:27;99121.56;;;24.35;29.36
61742;BME280;47650;49.848;9.620;2022-11-15T09:30:59;99131.44;;;23.21;32.71
61742;BME280;47650;49.848;9.620;2022-11-15T09:33:24;99111.72;;;23.95;31.35
61742;BME280;47650;49.848;9.620;2022-11-15T09:35:50;99115.06;;;24.36;31.82
61742;BME280;47650;49.848;9.620;2022-11-15T09:38:15;99103.75;;;25.22;30.04
61742;BME280;47650;49.848;9.620;2022-11-15T09:40:40;99106.09;;;24.91;29.83
61742;BME280;47650;49.848;9.620;2022-11-15T09:48:48;99101.09;;;23.47;31.94
61742;BME280;47650;49.848;9.620;2022-11-15T09:51:24;99100.47;;;22.76;33.77
61742;BME280;47650;49.848;9.620;2022-11-15T09:54:04;99118.03;;;19.61;39.50
61742;BME280;47650;49.848;9.620;2022-11-15T09:56:35;99101.94;;;20.36;40.83
61742;BME280;47650;49.848;9.620;2022-11-15T10:05:06;99088.03;;;19.19;40.85
61742;BME280;47650;49.848;9.620;2022-11-15T10:10:39;99091.59;;;16.35;48.82
61742;BME280;47650;49.848;9.620;2022-11-15T10:13:35;99108.22;;;15.81;50.63
61742;BME280;47650;49.848;9.620;2022-11-15T10:16:08;99109.72;;;15.69;50.60
61742;BME280;47650;49.848;9.620;2022-11-15T10:18:56;99091.13;;;16.04;50.57
61742;BME280;47650;49.848;9.620;2022-11-15T10:24:23;99087.88;;;16.65;50.23
61742;BME280;47650;49.848;9.620;2022-11-15T10:26:50;99078.59;;;17.02;49.68
61742;BME280;47650;49.848;9.620;2022-11-15T10:29:20;99083.47;;;16.92;48.31
61742;BME280;47650;49.848;9.620;2022-11-15T10:31:47;99092.28;;;14.78;53.88
61742;BME280;47650;49.848;9.620;2022-11-15T10:34:15;99096.13;;;14.91;53.96
61742;BME280;47650;49.848;9.620;2022-11-15T10:37:05;99100.00;;;14.73;54.71
61742;BME280;47650;49.848;9.620;2022-11-15T10:39:31;99089.16;;;14.07;57.02
61742;BME280;47650;49.848;9.620;2022-11-15T10:42:15;99086.84;;;14.19;57.63
61742;BME280;47650;49.848;9.620;2022-11-15T10:44:44;99074.22;;;14.65;56.28
61742;BME280;47650;49.848;9.620;2022-11-15T10:50:00;99078.09;;;14.63;57.14
61742;BME280;47650;49.848;9.620;2022-11-15T10:52:26;99071.81;;;14.85;55.89
61742;BME280;47650;49.848;9.620;2022-11-15T10:54:59;99077.91;;;14.79;55.86
61742;BME280;47650;49.848;9.620;2022-11-15T10:57:28;99051.94;;;14.14;57.77
61742;BME280;47650;49.848;9.620;2022-11-15T10:59:58;99074.19;;;14.21;57.67
61742;BME280;47650;49.848;9.620;2022-11-15T11:02:38;99080.75;;;13.72;59.25
61742;BME280;47650;49.848;9.620;2022-11-15T11:05:20;99068.06;;;13.59;60.01
61742;BME280;47650;49.848;9.620;2022-11-15T11:10:52;99024.47;;;13.75;59.13
61742;BME280;47650;49.848;9.620;2022-11-15T11:13:40;99054.63;;;13.76;59.65
61742;BME280;47650;49.848;9.620;2022-11-15T11:19:04;99046.03;;;14.03;59.16
61742;BME280;47650;49.848;9.620;2022-11-15T11:24:59;99043.81;;;15.33;56.49
61742;BME280;47650;49.848;9.620;2022-11-15T11:27:42;99026.50;;;15.72;53.97
61742;BME280;47650;49.848;9.620;2022-11-15T11:30:21;99038.34;;;15.63;54.58
61742;BME280;47650;49.848;9.620;2022-11-15T11:33:16;99034.72;;;15.49;55.66
61742;BME280;47650;49.848;9.620;2022-11-15T11:39:05;99023.88;;;16.35;52.51
61742;BME280;47650;49.848;9.620;2022-11-15T11:41:56;99027.53;;;15.49;55.27
61742;BME280;47650;49.848;9.620;2022-11-15T11:44:32;98982.88;;;15.43;54.67
61742;BME280;47650;49.848;9.620;2022-11-15T11:47:12;99006.78;;;15.51;54.08
61742;BME280;47650;49.848;9.620;2022-11-15T11:52:54;99011.03;;;16.17;53.80
61742;BME280;47650;49.848;9.620;2022-11-15T11:55:43;99004.03;;;16.23;53.33
61742;BME280;47650;49.848;9.620;2022-11-15T11:58:21;98995.22;;;16.64;52.38
61742;BME280;47650;49.848;9.620;2022-11-15T12:00:52;98990.72;;;16.78;52.28
61742;BME280;47650;49.848;9.620;2022-11-15T12:06:16;98979.97;;;17.39;50.70
61742;BME280;47650;49.848;9.620;2022-11-15T12:08:59;98983.84;;;16.13;52.70
61742;BME280;47650;49.848;9.620;2022-11-15T12:11:34;98973.47;;;16.87;51.81
61742;BME280;47650;49.848;9.620;2022-11-15T12:14:04;98968.22;;;17.20;51.82
61742;BME280;47650;49.848;9.620;2022-11-15T12:16:32;98970.44;;;17.03;50.97
61742;BME280;47650;49.848;9.620;2022-11-15T12:19:04;98970.34;;;16.28;52.14
61742;BME280;47650;49.848;9.620;2022-11-15T12:24:22;98942.13;;;16.74;51.97
61742;BME280;47650;49.848;9.620;2022-11-15T12:26:54;98943.03;;;16.95;50.66
61742;BME280;47650;49.848;9.620;2022-11-15T12:29:37;98943.47;;;17.38;50.83
61742;BME280;47650;49.848;9.620;2022-11-15T12:32:17;98937.28;;;17.71;49.96
61742;BME280;47650;49.848;9.620;2022-11-15T12:34:46;98932.38;;;17.48;49.09
61742;BME280;47650;49.848;9.620;2022-11-15T12:40:04;98934.41;;;17.86;48.16
61742;BME280;47650;49.848;9.620;2022-11-15T12:42:35;98932.84;;;16.63;50.91
61742;BME280;47650;49.848;9.620;2022-11-15T12:45:01;98918.94;;;17.68;50.42
61742;BME280;47650;49.848;9.620;2022-11-15T12:47:27;98906.31;;;18.02;49.12
61742;BME280;47650;49.848;9.620;2022-11-15T12:49:52;98900.97;;;17.95;48.50
61742;BME280;47650;49.848;9.620;2022-11-15T12:52:18;98916.66;;;17.92;48.04
61742;BME280;47650;49.848;9.620;2022-11-15T12:54:58;98899.25;;;18.14;48.55
61742;BME280;47650;49.848;9.620;2022-11-15T12:57:34;98892.38;;;18.32;48.46
61742;BME280;47650;49.848;9.620;2022-11-15T13:02:42;98891.44;;;18.96;47.09
61742;BME280;47650;49.848;9.620;2022-11-15T13:17:53;98891.84;;;18.10;49.07
61742;BME280;47650;49.848;9.620;2022-11-15T13:20:31;98883.84;;;18.03;48.98
61742;BME280;47650;49.848;9.620;2022-11-15T13:23:15;98883.78;;;18.16;48.67
61742;BME280;47650;49.848;9.620;2022-11-15T13:33:16;98876.38;;;15.61;55.69
61742;BME280;47650;49.848;9.620;2022-11-15T13:35:46;98810.75;;;15.52;55.28
61742;BME280;47650;49.848;9.620;2022-11-15T13:38:24;98877.84;;;15.99;55.02
61742;BME280;47650;49.848;9.620;2022-11-15T13:40:52;98874.91;;;15.87;54.54
61742;BME280;47650;49.848;9.620;2022-11-15T13:43:27;98843.75;;;16.08;54.39
61742;BME280;47650;49.848;9.620;2022-11-15T13:46:13;98866.50;;;16.39;53.68
61742;BME280;47650;49.848;9.620;2022-11-15T13:48:45;98869.81;;;15.99;54.34
61742;BME280;47650;49.848;9.620;2022-11-15T13:51:25;98857.97;;;16.15;55.25
61742;BME280;47650;49.848;9.620;2022-11-15T13:53:56;98859.91;;;16.48;54.81
61742;BME280;47650;49.848;9.620;2022-11-15T13:56:23;98823.09;;;16.57;54.36
61742;BME280;47650;49.848;9.620;2022-11-15T13:58:52;98849.13;;;16.96;54.35
61742;BME280;47650;49.848;9.620;2022-11-15T14:01:21;98850.53;;;16.92;53.13
61742;BME280;47650;49.848;9.620;2022-11-15T14:03:58;98818.00;;;16.95;52.42
61742;BME280;47650;49.848;9.620;2022-11-15T14:06:28;98845.81;;;17.21;52.41
61742;BME280;47650;49.848;9.620;2022-11-15T14:11:24;98801.72;;;16.77;53.82
61742;BME280;47650;49.848;9.620;2022-11-15T14:14:12;98832.22;;;16.89;54.28
61742;BME280;47650;49.848;9.620;2022-11-15T14:16:49;98832.94;;;16.36;54.17
61742;BME280;47650;49.848;9.620;2022-11-15T14:24:36;98824.94;;;15.53;58.33
61742;BME280;47650;49.848;9.620;2022-11-15T14:27:26;98808.78;;;15.68;58.02
61742;BME280;47650;49.848;9.620;2022-11-15T14:29:53;98796.97;;;15.84;57.75
61742;BME280;47650;49.848;9.620;2022-11-15T14:32:27;98792.88;;;15.94;57.62
61742;BME280;47650;49.848;9.620;2022-11-15T14:35:01;98792.91;;;16.01;57.56
61742;BME280;47650;49.848;9.620;2022-11-15T14:37:31;98790.03;;;15.96;57.54
61742;BME280;47650;49.848;9.620;2022-11-15T14:39:58;98789.38;;;15.87;57.90
61742;BME280;47650;49.848;9.620;2022-11-15T14:42:24;98783.72;;;15.34;58.87
61742;BME280;47650;49.848;9.620;2022-11-15T14:44:50;98788.63;;;14.52;61.62
61742;BME280;47650;49.848;9.620;2022-11-15T14:47:15;98756.44;;;14.54;61.84
61742;BME280;47650;49.848;9.620;2022-11-15T14:49:41;98771.41;;;14.55;62.31
61742;BME280;47650;49.848;9.620;2022-11-15T14:52:21;98790.66;;;14.93;62.21
61742;BME280;47650;49.848;9.620;2022-11-15T14:54:51;98788.63;;;14.74;61.39
61742;BME280;47650;49.848;9.620;2022-11-15T14:57:16;98770.13;;;14.94;61.55
61742;BME280;47650;49.848;9.620;2022-11-15T14:59:42;98768.75;;;15.04;61.59
61742;BME280;47650;49.848;9.620;2022-11-15T15:02:24;98757.63;;;15.01;61.41
61742;BME280;47650;49.848;9.620;2022-11-15T15:04:51;98757.88;;;15.06;60.77